ADDS TAF Board (Experimental) INFO Settings
IDs:

KMCI - Kansas City Intl, MO, US

Issued at 2320 UTC 22 May 2015
Updated at: 0414 UTC 23 May 2015
Time0353Z 23/05Z 23/06Z 23/07Z 23/08Z 23/09Z 23/10Z 23/11Z 23/12Z 23/13Z 23/14Z 23/15Z 23/16Z 23/17Z
Type OBS PRVL PRVL PRVL PRVL PRVL PRVL PRVL PRVL PRVL PRVL PRVL PRVL PRVL
VIS 10 >6 >6 >6 >6 >6 >6 >6 >6 >6 >6 >6 >6 >6
CIG 65 80 80 80 80 80 80 80 80 80 80 35 35 35
Cover OVC BKN BKN BKN BKN BKN BKN BKN BKN BKN BKN OVC OVC OVC
FltCat VFR VFR VFR VFR VFR VFR VFR VFR VFR VFR VFR VFR VFR VFR
WX -- -- -- -- -- -- -- -- -- -- -- VCSH VCSH VCSH
WDir 140 160 160 160 160 160 160 160 160 160 160 140 140 140
WSpd 6 6 6 6 6 6 6 6 6 6 6 9 9 9
WGst -- -- -- -- -- -- -- -- -- -- -- -- -- --
R01/19
XWnd -5 -3 -3 -3 -3 -3 -3 -3 -3 -3 -3 -7 -7 -7
HWnd -4 -5 -5 -5 -5 -5 -5 -5 -5 -5 -5 -5 -5 -5
R09/27
XWnd -4 -5 -5 -5 -5 -5 -5 -5 -5 -5 -5 -6 -6 -6
HWnd 4 3 3 3 3 3 3 3 3 3 3 6 6 6

NOTE: TEMPO conditions in [brackets]. Keep in mind TEMPO conditions might be better (lower impact) than prevailing conditions.

Raw TAF
KMCI 222320Z 2300/2324 16006KT P6SM BKN080
  FM231500 14009KT P6SM VCSH OVC035
  FM232200 15011KT 6SM -SHRA OVC025


Raw METAR
KMCI 230353Z 14006KT 10SM OVC065 16/11 A3021 RMK AO2 SLP227 T01560106
KMCI 230253Z 13007KT 10SM OVC070 16/11 A3020 RMK AO2 SLP222 T01560106 56003
KMCI 230153Z 13007KT 10SM OVC070 16/10 A3020 RMK AO2 SLP223 T01610100

METAR Board
Radar Display
Forecast Discussion

TAF Board Legend

Potential Impact
Threat None Slight Moderate High
Visibility (sm) ≥5.1 5.1>X≥3 3>X≥1 <1
Ceiling (100 ft) ≥30.1 30.1>X≥10 10>X≥5 <5
Wind Speed (kt) <10 10≤X<20 20≤X<30 ≥30
Wind Gust (kt) <15 15≤X<25 25≤X<35 ≥35
Weather No Wx Reported VCTS,-TS,-FZRA,SN TS,FZRA +TS,+FZRA,+SN